createdAt,value
2018-11-22T12:16:53.153Z,48.58
2018-11-22T12:17:57.006Z,53.85
2018-11-22T12:19:00.650Z,50.75
2018-11-22T12:20:05.114Z,51.37
2018-11-22T12:21:08.790Z,54.95
2018-11-22T12:22:12.468Z,52.20
2018-11-22T12:23:16.121Z,52.65
2018-11-22T12:24:19.748Z,56.70
2018-11-22T12:25:25.328Z,51.68
2018-11-22T12:26:28.764Z,50.35
2018-11-22T12:27:32.341Z,49.18
2018-11-22T12:28:35.936Z,53.95
2018-11-22T12:29:39.677Z,47.35
2018-11-22T12:30:43.316Z,50.20
2018-11-22T12:31:46.930Z,48.30
2018-11-22T12:32:56.128Z,51.40
2018-11-22T12:34:05.300Z,47.98
2018-11-22T12:35:17.254Z,49.20
2018-11-22T12:36:21.897Z,48.52
2018-11-22T12:37:31.851Z,49.45
2018-11-22T12:38:35.599Z,68.12
2018-11-22T12:39:39.503Z,59.80
2018-11-22T12:40:43.286Z,51.70
2018-11-22T12:41:46.913Z,54.83
2018-11-22T12:42:50.732Z,51.70
2018-11-22T12:43:54.368Z,51.98
2018-11-22T12:45:02.727Z,54.45
2018-11-22T12:46:06.379Z,55.00
2018-11-22T12:47:10.036Z,52.73
2018-11-22T12:48:13.700Z,54.23
2018-11-22T12:49:17.371Z,56.53
2018-11-22T12:50:21.028Z,51.13
2018-11-22T12:51:24.668Z,53.55
2018-11-22T12:52:28.721Z,52.23
2018-11-22T12:53:32.313Z,55.73
2018-11-22T12:54:36.929Z,52.93
2018-11-22T12:55:40.539Z,52.75
2018-11-22T12:56:44.213Z,57.62
2018-11-22T12:57:47.881Z,51.08
2018-11-22T12:58:51.549Z,56.80
2018-11-22T12:59:55.614Z,56.75
2018-11-22T13:00:59.847Z,53.68
2018-11-22T13:02:03.572Z,48.98
2018-11-22T13:03:07.245Z,59.45
2018-11-22T13:04:10.880Z,52.53
2018-11-22T13:05:15.821Z,54.15
2018-11-22T13:06:19.496Z,53.30
2018-11-22T13:07:23.108Z,57.30
2018-11-22T13:08:26.731Z,53.70
2018-11-22T13:09:30.363Z,49.20
2018-11-22T13:10:33.988Z,59.30
2018-11-22T13:11:37.743Z,57.65
2018-11-22T13:12:42.291Z,52.03
2018-11-22T13:13:46.050Z,52.33
2018-11-22T13:14:49.672Z,61.85
2018-11-22T13:15:53.320Z,57.03
2018-11-22T13:16:56.978Z,55.30
2018-11-22T13:18:00.563Z,56.45
2018-11-22T13:19:04.288Z,56.23
2018-11-22T13:20:09.772Z,61.55
2018-11-22T13:21:13.426Z,57.60
2018-11-22T13:22:17.049Z,55.45
2018-11-22T13:23:20.840Z,50.15
2018-11-22T13:24:24.590Z,56.60
2018-11-22T13:25:28.212Z,62.33
2018-11-22T13:26:31.832Z,53.05
2018-11-22T13:27:35.454Z,59.60
2018-11-22T13:28:39.079Z,61.85
2018-11-22T13:29:42.750Z,56.18
2018-11-22T13:30:46.464Z,58.58
2018-11-22T13:31:50.194Z,52.75
2018-11-22T13:32:54.395Z,59.75
2018-11-22T13:33:58.079Z,62.85
2018-11-22T13:35:01.726Z,56.65
2018-11-22T13:36:05.470Z,59.42
2018-11-22T13:37:09.796Z,58.23
2018-11-22T13:38:13.485Z,57.73
2018-11-22T13:39:17.117Z,52.03
2018-11-22T13:40:20.769Z,54.05
2018-11-22T13:41:24.374Z,55.78
2018-11-22T13:42:27.983Z,52.60
2018-11-22T13:43:31.657Z,56.00
2018-11-22T13:44:35.251Z,56.10
2018-11-22T13:45:38.862Z,56.63
2018-11-22T13:46:42.528Z,56.05
2018-11-22T13:47:47.075Z,59.90
2018-11-22T13:48:50.699Z,56.95
2018-11-22T13:49:54.367Z,59.23
2018-11-22T13:50:58.021Z,55.92
2018-11-22T13:52:01.721Z,57.27
2018-11-22T13:53:07.605Z,60.28
2018-11-22T13:54:11.458Z,54.90
2018-11-22T13:55:15.683Z,56.45
2018-11-22T13:56:18.949Z,55.95
2018-11-22T13:57:22.680Z,59.53
2018-11-22T13:58:26.321Z,64.15
2018-11-22T13:59:29.984Z,53.05
2018-11-22T14:00:34.536Z,55.75
2018-11-22T14:01:38.151Z,60.28
2018-11-22T14:02:42.181Z,57.05
2018-11-22T14:03:45.822Z,53.10
2018-11-22T14:04:49.486Z,63.98
2018-11-22T14:05:53.073Z,56.63
2018-11-22T14:06:56.681Z,54.93
2018-11-22T14:08:00.520Z,57.17
2018-11-22T14:09:05.224Z,62.40
2018-11-22T14:10:11.395Z,55.75
2018-11-22T14:11:15.350Z,57.43
2018-11-22T14:12:18.630Z,57.70
2018-11-22T14:13:22.281Z,60.88
2018-11-22T14:14:25.913Z,62.40
2018-11-22T14:15:30.820Z,62.83
2018-11-22T14:16:34.445Z,58.60
2018-11-22T14:17:38.089Z,59.10
2018-11-22T14:18:41.731Z,62.48
2018-11-22T14:19:45.373Z,59.38
2018-11-22T14:20:48.990Z,58.87
2018-11-22T14:21:52.776Z,59.30
2018-11-22T14:22:56.463Z,66.00
2018-11-22T14:24:00.381Z,61.80
2018-11-22T14:25:05.634Z,61.25
2018-11-22T14:26:10.242Z,60.98
2018-11-22T14:27:20.452Z,62.45
2018-11-22T14:28:25.657Z,63.23
2018-11-22T14:29:30.231Z,58.78
2018-11-22T14:30:35.037Z,58.70
2018-11-22T14:31:38.778Z,55.23
2018-11-22T14:32:43.035Z,60.15
2018-11-22T14:33:46.747Z,64.22
2018-11-22T14:34:50.380Z,63.60
2018-11-22T14:35:54.659Z,63.25
2018-11-22T14:36:58.300Z,62.00
2018-11-22T14:38:02.303Z,65.37
2018-11-22T14:39:06.783Z,61.70
2018-11-22T14:40:13.025Z,67.92
2018-11-22T14:41:16.657Z,67.47
2018-11-22T14:42:20.301Z,66.55
2018-11-22T14:43:23.940Z,63.08
2018-11-22T14:44:27.535Z,63.65
2018-11-22T14:45:32.956Z,67.32
2018-11-22T14:46:36.587Z,66.12
2018-11-22T14:47:40.949Z,59.50
2018-11-22T14:48:44.668Z,58.68
2018-11-22T14:49:48.525Z,59.15
2018-11-22T14:51:02.831Z,67.53
2018-11-22T14:52:06.917Z,63.05
2018-11-22T14:53:13.337Z,62.48
2018-11-22T14:54:16.961Z,62.25
2018-11-22T14:55:20.613Z,65.55
2018-11-22T14:56:24.260Z,59.85
2018-11-22T14:57:27.874Z,75.70
2018-11-22T14:58:31.542Z,59.75
2018-11-22T14:59:35.137Z,65.72
2018-11-22T15:00:38.746Z,64.53
2018-11-22T15:01:42.403Z,68.42
2018-11-22T15:02:47.084Z,65.15
2018-11-22T15:03:52.296Z,58.00
2018-11-22T15:04:56.169Z,62.33
2018-11-22T15:06:00.361Z,64.47
2018-11-22T15:07:03.975Z,62.20
2018-11-22T15:08:07.710Z,65.20
2018-11-22T15:09:11.453Z,67.58
2018-11-22T15:10:16.238Z,61.35
2018-11-22T15:11:19.854Z,63.02
2018-11-22T15:12:23.673Z,66.10
2018-11-22T15:13:27.531Z,66.67
2018-11-22T15:14:31.470Z,65.87
2018-11-22T15:15:35.375Z,63.42
2018-11-22T15:16:45.740Z,65.25
2018-11-22T15:17:49.522Z,65.65
2018-11-22T15:18:53.895Z,74.62
2018-11-22T15:19:57.432Z,62.65
2018-11-22T15:21:01.376Z,64.55
2018-11-22T15:22:05.729Z,59.03
2018-11-22T15:23:10.629Z,63.33
2018-11-22T15:24:14.415Z,64.17
2018-11-22T15:25:19.745Z,66.15
2018-11-22T15:26:23.416Z,58.78
2018-11-22T15:27:27.086Z,61.37
2018-11-22T15:28:30.721Z,64.25
2018-11-22T15:29:34.328Z,60.83
2018-11-22T15:30:37.965Z,60.60
2018-11-22T15:31:41.574Z,64.45
2018-11-22T15:32:54.893Z,63.83
2018-11-22T15:34:01.403Z,63.85
2018-11-22T15:35:07.289Z,64.67
2018-11-22T15:36:11.170Z,62.30
2018-11-22T15:37:17.892Z,64.90
2018-11-22T15:38:21.778Z,65.75
2018-11-22T15:39:27.798Z,64.50
2018-11-22T15:40:32.920Z,69.03
2018-11-22T15:41:37.492Z,68.05
2018-11-22T15:42:41.194Z,65.55
2018-11-22T15:43:44.820Z,66.57
2018-11-22T15:44:48.556Z,62.67
2018-11-22T15:45:52.486Z,65.05
2018-11-22T15:46:56.492Z,68.22
2018-11-22T15:48:00.135Z,63.78
2018-11-22T15:49:03.733Z,63.38
2018-11-22T15:50:09.016Z,64.20
2018-11-22T15:51:12.659Z,57.73
2018-11-22T15:52:16.301Z,65.78
2018-11-22T15:53:19.914Z,65.40
2018-11-22T15:54:23.605Z,67.32
2018-11-22T15:55:27.678Z,64.65
2018-11-22T15:56:31.316Z,66.57
2018-11-22T15:57:35.292Z,66.25
2018-11-22T15:58:39.707Z,66.37
2018-11-22T15:59:43.416Z,68.92
2018-11-22T16:00:47.023Z,66.40
2018-11-22T16:01:51.021Z,65.12
2018-11-22T16:02:55.261Z,64.25
2018-11-22T16:03:58.899Z,65.35
2018-11-22T16:05:02.514Z,68.85
2018-11-22T16:06:06.146Z,68.40
2018-11-22T16:07:09.772Z,65.05
2018-11-22T16:08:13.375Z,69.07
2018-11-22T16:09:16.966Z,66.80
2018-11-22T16:10:26.925Z,69.30
2018-11-22T16:11:29.844Z,67.47
2018-11-22T16:12:33.477Z,67.95
2018-11-22T16:13:37.160Z,70.45
2018-11-22T16:14:40.862Z,71.10
2018-11-22T16:15:47.322Z,67.22
2018-11-22T16:16:50.941Z,66.72
2018-11-22T16:18:01.361Z,68.20
2018-11-22T16:19:05.262Z,65.37
2018-11-22T16:20:09.070Z,67.35
2018-11-22T16:21:12.832Z,66.62
2018-11-22T16:22:16.456Z,70.47
2018-11-22T16:23:20.123Z,64.80
2018-11-22T16:24:23.737Z,65.05
2018-11-22T16:25:27.329Z,62.73
2018-11-22T16:26:31.033Z,67.22
2018-11-22T16:27:34.775Z,71.30
2018-11-22T16:28:38.376Z,67.35
2018-11-22T16:29:42.158Z,62.67
2018-11-22T16:30:45.877Z,61.20
2018-11-22T16:31:49.625Z,69.17
2018-11-22T16:32:53.576Z,64.55
2018-11-22T16:33:57.305Z,66.25
2018-11-22T16:35:01.091Z,70.42
2018-11-22T16:36:05.233Z,67.00
2018-11-22T16:37:15.205Z,67.58
2018-11-22T16:38:18.907Z,64.37
2018-11-22T16:39:22.557Z,69.72
2018-11-22T16:40:27.529Z,69.70
2018-11-22T16:41:31.204Z,71.92
2018-11-22T16:42:34.839Z,69.12
2018-11-22T16:43:38.529Z,78.72
2018-11-22T16:44:42.209Z,83.58
2018-11-22T16:45:46.138Z,69.77
2018-11-22T16:46:49.823Z,69.17
2018-11-22T16:47:53.815Z,71.70
2018-11-22T16:48:57.829Z,66.95
2018-11-22T16:50:01.568Z,76.12
2018-11-22T16:51:05.567Z,70.75
2018-11-22T16:52:09.659Z,74.45
2018-11-22T16:53:13.352Z,70.10
2018-11-22T16:54:17.065Z,67.22
2018-11-22T16:55:21.336Z,79.82
2018-11-22T16:56:25.033Z,68.37
2018-11-22T16:57:28.665Z,73.87
2018-11-22T16:58:32.339Z,65.50
2018-11-22T16:59:36.163Z,69.60
2018-11-22T17:01:50.207Z,72.58
2018-11-22T17:02:55.653Z,71.45
2018-11-22T17:03:59.546Z,76.67
2018-11-22T17:05:03.333Z,71.15
2018-11-22T17:06:06.945Z,82.45
2018-11-22T17:07:10.595Z,81.20
2018-11-22T17:08:14.293Z,69.35
2018-11-22T17:09:18.057Z,73.87
2018-11-22T17:10:23.578Z,75.72
2018-11-22T17:11:27.212Z,70.87
2018-11-22T17:12:30.829Z,78.72
2018-11-22T17:13:34.438Z,76.02
2018-11-22T17:14:38.202Z,78.25
2018-11-22T17:15:42.605Z,73.67
2018-11-22T17:16:46.248Z,76.47
2018-11-22T17:17:50.485Z,70.60
2018-11-22T17:18:54.104Z,71.95
2018-11-22T17:19:57.749Z,81.00
2018-11-22T17:21:01.834Z,88.87
2018-11-22T17:22:05.547Z,78.28
2018-11-22T17:23:09.225Z,79.25
2018-11-22T17:24:12.848Z,71.55
2018-11-22T17:25:19.932Z,72.05
2018-11-22T17:26:23.530Z,70.32
2018-11-22T17:27:27.246Z,74.60
2018-11-22T17:28:30.913Z,75.47
2018-11-22T17:29:34.883Z,68.35
2018-11-22T17:30:41.681Z,76.07
2018-11-22T17:31:45.411Z,80.38
2018-11-22T17:32:49.050Z,67.15
2018-11-22T17:33:52.690Z,79.32
2018-11-22T17:34:56.359Z,78.12
2018-11-22T17:36:00.027Z,80.28
2018-11-22T17:37:03.619Z,74.80
2018-11-22T17:38:08.218Z,79.00
2018-11-22T17:39:13.916Z,77.87
2018-11-22T17:40:20.276Z,73.28
2018-11-22T17:41:23.965Z,78.65
2018-11-22T17:42:28.184Z,74.87
2018-11-22T17:43:32.202Z,71.00
2018-11-22T17:44:36.674Z,71.45
2018-11-22T17:45:41.808Z,74.77
2018-11-22T17:46:45.512Z,72.22
2018-11-22T17:47:49.141Z,74.85
2018-11-22T17:48:52.743Z,83.27
2018-11-22T17:49:56.350Z,73.62
2018-11-22T17:51:00.278Z,77.00
2018-11-22T17:52:03.928Z,74.47
2018-11-22T17:53:08.080Z,73.97
2018-11-22T17:54:11.742Z,76.92
2018-11-22T17:55:18.252Z,74.80
2018-11-22T17:56:21.907Z,70.70
2018-11-22T17:57:25.493Z,79.75
2018-11-22T17:58:29.127Z,72.37
2018-11-22T17:59:32.840Z,73.10
2018-11-22T18:00:37.845Z,73.60
2018-11-22T18:01:41.545Z,70.90
2018-11-22T18:02:46.362Z,78.07
2018-11-22T18:03:50.025Z,76.55
2018-11-22T18:04:53.655Z,91.30
2018-11-22T18:05:57.268Z,72.85
2018-11-22T18:07:00.885Z,87.80
2018-11-22T18:08:04.974Z,103.00
2018-11-22T18:09:09.641Z,76.00
2018-11-22T18:10:15.302Z,70.75
2018-11-22T18:11:19.032Z,72.25
2018-11-22T18:12:22.635Z,73.20
2018-11-22T18:13:26.284Z,80.47
2018-11-22T18:14:30.181Z,67.30
2018-11-22T18:15:36.033Z,74.82
2018-11-22T18:16:39.651Z,73.02
2018-11-22T18:17:43.321Z,69.65
2018-11-22T18:18:47.001Z,79.42
2018-11-22T18:19:50.653Z,72.40
2018-11-22T18:20:54.293Z,78.37
2018-11-22T18:21:57.973Z,73.67
2018-11-22T18:23:02.258Z,80.40
2018-11-22T18:24:05.977Z,74.17
2018-11-22T18:25:12.799Z,74.50
2018-11-22T18:26:16.592Z,79.70
2018-11-22T18:27:20.418Z,70.35
2018-11-22T18:28:24.175Z,68.95
2018-11-22T18:29:27.794Z,75.75
2018-11-22T18:30:32.845Z,83.72
2018-11-22T18:31:37.005Z,87.82
2018-11-22T18:32:40.783Z,78.75
2018-11-22T18:33:44.499Z,76.85
2018-11-22T18:34:48.086Z,75.57
2018-11-22T18:35:51.863Z,73.30
2018-11-22T18:36:55.581Z,84.75
2018-11-22T18:37:59.270Z,92.15
2018-11-22T18:39:03.063Z,77.20
2018-11-22T18:40:09.259Z,78.55
2018-11-22T18:41:12.873Z,74.87
2018-11-22T18:42:16.553Z,78.02
2018-11-22T18:43:20.179Z,70.22
2018-11-22T18:44:24.037Z,79.10
2018-11-22T18:45:33.121Z,86.17
2018-11-22T18:46:36.836Z,80.72
2018-11-22T18:47:40.930Z,75.55
2018-11-22T18:48:44.577Z,79.32
2018-11-22T18:49:48.250Z,80.30
2018-11-22T18:50:51.859Z,68.22
2018-11-22T18:51:55.485Z,75.17
2018-11-22T18:52:59.874Z,74.58
2018-11-22T18:54:03.635Z,76.35
2018-11-22T18:55:07.793Z,80.20
2018-11-22T18:56:11.457Z,80.60
2018-11-22T18:57:15.114Z,83.95
2018-11-22T18:58:18.859Z,78.75
2018-11-22T18:59:22.538Z,101.85
2018-11-22T19:00:27.578Z,78.70
2018-11-22T19:01:31.242Z,70.90
2018-11-22T19:02:35.060Z,74.87
2018-11-22T19:03:38.871Z,76.40
2018-11-22T19:04:42.579Z,87.35
2018-11-22T19:05:46.255Z,78.67
2018-11-22T19:06:49.914Z,68.80
2018-11-22T19:07:54.329Z,75.65
2018-11-22T19:08:58.001Z,74.80
2018-11-22T19:10:01.715Z,80.47
2018-11-22T19:11:05.653Z,75.97
2018-11-22T19:12:09.317Z,72.42
2018-11-22T19:13:13.581Z,75.75
2018-11-22T19:14:17.230Z,75.03
2018-11-22T19:15:22.314Z,69.40
2018-11-22T19:16:26.016Z,70.55
2018-11-22T19:17:29.783Z,81.15
2018-11-22T19:18:33.424Z,68.05
2018-11-22T19:19:37.097Z,76.82
2018-11-22T19:20:42.102Z,69.80
2018-11-22T19:21:45.742Z,71.70
2018-11-22T19:22:50.119Z,79.15
2018-11-22T19:23:54.598Z,72.70
2018-11-22T19:24:58.256Z,67.95
2018-11-22T19:26:01.936Z,65.62
2018-11-22T19:27:05.664Z,74.77
2018-11-22T19:28:09.818Z,71.35
2018-11-22T19:29:13.492Z,78.57
2018-11-22T19:30:20.320Z,72.15
2018-11-22T19:31:23.977Z,76.20
2018-11-22T19:32:27.698Z,75.03
2018-11-22T19:33:31.468Z,80.62
2018-11-22T19:34:35.133Z,83.50
2018-11-22T19:35:40.601Z,80.67
2018-11-22T19:36:44.242Z,72.37
2018-11-22T19:37:48.368Z,79.75
2018-11-22T19:38:52.033Z,74.58
2018-11-22T19:39:55.717Z,72.30
2018-11-22T19:40:59.396Z,70.35
2018-11-22T19:42:03.107Z,71.15
2018-11-22T19:43:07.815Z,68.62
2018-11-22T19:44:11.460Z,72.35
2018-11-22T19:45:16.413Z,74.77
2018-11-22T19:46:20.202Z,70.62
2018-11-22T19:47:24.096Z,70.03
2018-11-22T19:48:27.685Z,65.72
2018-11-22T19:49:32.294Z,65.05
2018-11-22T19:50:36.136Z,73.45
2018-11-22T19:51:39.834Z,70.05
2018-11-22T19:52:44.093Z,70.52
2018-11-22T19:53:47.787Z,74.35
2018-11-22T19:54:51.450Z,72.65
2018-11-22T19:55:55.146Z,67.60
2018-11-22T19:56:58.790Z,71.92
2018-11-22T19:58:03.730Z,74.45
2018-11-22T19:59:07.458Z,63.33
2018-11-22T20:00:12.355Z,84.52
2018-11-22T20:01:16.012Z,65.28
2018-11-22T20:02:19.665Z,62.33
2018-11-22T20:03:23.575Z,70.03
2018-11-22T20:04:27.236Z,69.70
2018-11-22T20:05:32.151Z,66.20
2018-11-22T20:06:35.867Z,64.27
2018-11-22T20:07:39.973Z,67.32
2018-11-22T20:08:43.617Z,72.58
2018-11-22T20:09:47.358Z,69.10
2018-11-22T20:10:51.227Z,69.22
2018-11-22T20:11:54.866Z,70.40
2018-11-22T20:12:58.700Z,70.10
2018-11-22T20:14:02.611Z,66.95
2018-11-22T20:15:07.437Z,65.92
2018-11-22T20:16:11.057Z,75.05
2018-11-22T20:17:14.805Z,76.97
2018-11-22T20:18:18.411Z,99.13
2018-11-22T20:19:22.090Z,66.05
2018-11-22T20:20:26.166Z,64.17
2018-11-22T20:21:29.780Z,62.70
2018-11-22T20:22:33.402Z,72.92
2018-11-22T20:23:37.038Z,73.22
2018-11-22T20:24:40.699Z,59.33
2018-11-22T20:25:44.350Z,62.45
2018-11-22T20:26:47.980Z,74.50
2018-11-22T20:27:52.531Z,65.52
2018-11-22T20:28:56.149Z,63.80
2018-11-22T20:29:59.938Z,68.07
2018-11-22T20:31:03.740Z,65.47
2018-11-22T20:32:07.424Z,71.15
2018-11-22T20:33:11.993Z,64.60
2018-11-22T20:34:16.839Z,65.70
2018-11-22T20:35:21.142Z,66.57
2018-11-22T20:36:25.153Z,59.98
2018-11-22T20:37:28.864Z,57.80
2018-11-22T20:38:32.546Z,60.73
2018-11-22T20:39:36.132Z,60.33
2018-11-22T20:40:40.479Z,61.13
2018-11-22T20:41:44.522Z,57.58
2018-11-22T20:42:50.192Z,59.42
2018-11-22T20:43:53.844Z,55.98
2018-11-22T20:44:57.525Z,57.40
2018-11-22T20:46:01.364Z,69.97
2018-11-22T20:47:04.999Z,61.13
2018-11-22T20:48:09.051Z,64.22
2018-11-22T20:49:12.863Z,61.02
2018-11-22T20:50:17.901Z,64.62
2018-11-22T20:51:21.562Z,64.85
2018-11-22T20:52:25.311Z,62.95
2018-11-22T20:53:29.057Z,58.75
2018-11-22T20:54:33.783Z,58.10
2018-11-22T20:55:38.796Z,59.40
2018-11-22T20:56:42.425Z,54.65
2018-11-22T20:57:47.164Z,56.85
2018-11-22T20:58:50.804Z,57.33
2018-11-22T20:59:54.433Z,50.98
2018-11-22T21:00:58.037Z,55.33
2018-11-22T21:02:01.710Z,56.02
2018-11-22T21:03:05.748Z,53.02
2018-11-22T21:04:09.380Z,54.58
2018-11-22T21:05:13.528Z,48.70
2018-11-22T21:06:17.197Z,54.45
2018-11-22T21:07:20.813Z,55.98
2018-11-22T21:08:24.561Z,53.78
2018-11-22T21:09:28.177Z,47.88
2018-11-22T21:10:32.707Z,57.65
2018-11-22T21:11:36.514Z,50.35
2018-11-22T21:12:40.637Z,51.15
2018-11-22T21:13:44.285Z,51.42
2018-11-22T21:14:47.995Z,61.37
2018-11-22T21:15:51.630Z,53.00
2018-11-22T21:16:55.601Z,48.42
2018-11-22T21:18:00.758Z,56.23
2018-11-22T21:19:04.429Z,50.20
2018-11-22T21:20:09.357Z,46.20
2018-11-22T21:21:13.012Z,52.83
2018-11-22T21:22:16.653Z,55.92
2018-11-22T21:23:20.301Z,54.23
2018-11-22T21:24:24.156Z,54.50
2018-11-22T21:25:27.772Z,54.35
2018-11-22T21:26:31.699Z,57.70
2018-11-22T21:27:35.336Z,50.43
2018-11-22T21:28:39.083Z,48.28
2018-11-22T21:29:43.743Z,48.20
2018-11-22T21:30:47.761Z,48.25
2018-11-22T21:31:51.525Z,57.58
2018-11-22T21:32:55.540Z,45.85
2018-11-22T21:34:00.917Z,50.88
2018-11-22T21:35:05.166Z,50.55
2018-11-22T21:36:08.871Z,57.13
2018-11-22T21:37:12.618Z,52.20
2018-11-22T21:38:16.301Z,50.60
2018-11-22T21:39:19.925Z,53.40
2018-11-22T21:40:24.193Z,48.70
2018-11-22T21:41:27.830Z,44.08
2018-11-22T21:42:31.475Z,53.28
2018-11-22T21:43:35.130Z,49.30
2018-11-22T21:44:38.794Z,51.18
2018-11-22T21:45:43.053Z,53.68
2018-11-22T21:46:47.312Z,45.55
2018-11-22T21:47:52.296Z,49.77
2018-11-22T21:48:56.623Z,48.28
2018-11-22T21:50:00.973Z,48.08
2018-11-22T21:51:05.250Z,47.58
2018-11-22T21:52:09.256Z,54.38
2018-11-22T21:53:13.532Z,49.08
2018-11-22T21:54:17.226Z,45.73
2018-11-22T21:55:23.727Z,44.40
2018-11-22T21:56:27.684Z,44.67
2018-11-22T21:57:33.715Z,49.70
2018-11-22T21:58:38.830Z,49.03
2018-11-22T21:59:42.485Z,48.52
2018-11-22T22:00:46.124Z,55.10
2018-11-22T22:01:49.924Z,49.75
2018-11-22T22:02:55.745Z,48.13
2018-11-22T22:03:59.406Z,50.03
2018-11-22T22:05:03.045Z,43.58
2018-11-22T22:06:06.664Z,47.23
2018-11-22T22:07:10.428Z,50.98
2018-11-22T22:08:14.102Z,51.92
2018-11-22T22:09:17.733Z,44.95
2018-11-22T22:10:21.500Z,47.78
2018-11-22T22:11:25.135Z,48.33
2018-11-22T22:12:28.785Z,54.05
2018-11-22T22:13:32.449Z,51.88
2018-11-22T22:14:36.528Z,51.73
2018-11-22T22:15:40.234Z,48.90
2018-11-22T22:16:43.901Z,53.30
2018-11-22T22:17:47.736Z,51.40
2018-11-22T22:18:51.427Z,51.75
2018-11-22T22:19:55.105Z,47.70
2018-11-22T22:20:59.137Z,56.25
2018-11-22T22:22:02.773Z,47.38
2018-11-22T22:23:07.112Z,49.10
2018-11-22T22:24:10.113Z,51.95
2018-11-22T22:25:16.311Z,51.68
2018-11-22T22:26:19.908Z,52.78
2018-11-22T22:27:24.011Z,52.90
2018-11-22T22:28:27.762Z,53.13
2018-11-22T22:29:31.385Z,54.58
2018-11-22T22:30:35.331Z,62.03
2018-11-22T22:31:38.951Z,49.77
2018-11-22T22:32:43.279Z,50.38
2018-11-22T22:33:46.948Z,52.58
2018-11-22T22:34:50.704Z,64.40
2018-11-22T22:35:54.335Z,52.70
2018-11-22T22:36:57.969Z,59.08
2018-11-22T22:38:01.613Z,56.88
2018-11-22T22:39:08.519Z,62.15
2018-11-22T22:40:14.545Z,53.83
2018-11-22T22:41:19.700Z,63.08
2018-11-22T22:42:23.345Z,54.35
2018-11-22T22:43:26.988Z,54.35
2018-11-22T22:44:30.652Z,51.28
2018-11-22T22:45:34.665Z,55.10
2018-11-22T22:46:38.413Z,59.85
2018-11-22T22:47:42.471Z,45.03
2018-11-22T22:48:46.129Z,47.88
2018-11-22T22:49:49.733Z,47.95
2018-11-22T22:50:53.505Z,51.63
2018-11-22T22:51:57.127Z,56.85
2018-11-22T22:53:01.107Z,59.13
2018-11-22T22:54:06.260Z,50.25
2018-11-22T22:55:10.949Z,67.27
2018-11-22T22:56:15.451Z,54.75
2018-11-22T22:57:19.911Z,54.70
2018-11-22T22:58:23.577Z,68.75
2018-11-22T22:59:27.180Z,47.83
2018-11-22T23:00:39.055Z,58.58
2018-11-22T23:01:42.738Z,48.33
2018-11-22T23:02:46.354Z,49.10
2018-11-22T23:03:49.936Z,52.53
2018-11-22T23:04:53.557Z,53.83
2018-11-22T23:05:57.240Z,61.10
2018-11-22T23:07:00.902Z,59.90
2018-11-22T23:08:04.517Z,52.00
2018-11-22T23:09:10.669Z,52.27
2018-11-22T23:10:14.485Z,51.95
2018-11-22T23:11:18.149Z,50.92
2018-11-22T23:12:21.796Z,49.45
2018-11-22T23:13:25.631Z,52.40
2018-11-22T23:14:31.792Z,49.67
2018-11-22T23:15:35.719Z,54.98
2018-11-22T23:16:39.366Z,51.28
2018-11-22T23:17:43.346Z,52.35
2018-11-22T23:18:47.075Z,51.98
2018-11-22T23:19:50.840Z,52.38
2018-11-22T23:20:54.440Z,51.05
2018-11-22T23:21:58.690Z,48.33
2018-11-22T23:23:02.292Z,55.60
2018-11-22T23:24:05.947Z,59.15
2018-11-22T23:25:10.523Z,59.42
2018-11-22T23:26:14.169Z,49.98
2018-11-22T23:27:17.776Z,49.55
2018-11-22T23:28:21.484Z,53.42
2018-11-22T23:29:25.300Z,55.80
2018-11-22T23:30:31.157Z,55.98
2018-11-22T23:31:34.841Z,52.70
2018-11-22T23:32:38.491Z,42.50
2018-11-22T23:33:42.142Z,47.15
2018-11-22T23:34:45.746Z,47.95
2018-11-22T23:35:49.405Z,46.50
2018-11-22T23:36:53.029Z,44.60
2018-11-22T23:37:56.720Z,51.42
2018-11-22T23:39:00.401Z,49.42
2018-11-22T23:40:04.945Z,45.83
2018-11-22T23:41:08.662Z,49.70
2018-11-22T23:42:18.864Z,50.92
2018-11-22T23:43:22.469Z,46.77
2018-11-22T23:44:26.174Z,51.90
2018-11-22T23:45:30.856Z,46.92
2018-11-22T23:46:34.457Z,51.15
2018-11-22T23:47:38.677Z,49.70
2018-11-22T23:48:42.287Z,50.55
2018-11-22T23:49:45.969Z,52.70
2018-11-22T23:50:49.628Z,54.27
2018-11-22T23:51:53.251Z,46.65
2018-11-22T23:52:57.853Z,55.23
2018-11-22T23:54:01.457Z,58.17
2018-11-22T23:55:05.467Z,58.58
2018-11-22T23:56:09.153Z,65.22
2018-11-22T23:57:12.797Z,56.90
2018-11-22T23:58:16.412Z,54.83
2018-11-22T23:59:20.178Z,52.55
